createdAt,value
2017-12-24T00:02:04.427Z,20.35
2017-12-24T00:04:31.905Z,20.35
2017-12-24T00:06:59.451Z,20.33
2017-12-24T00:09:26.966Z,20.31
2017-12-24T00:11:54.446Z,20.28
2017-12-24T00:14:21.994Z,20.29
2017-12-24T00:16:49.576Z,20.31
2017-12-24T00:19:17.236Z,20.33
2017-12-24T00:21:44.796Z,20.35
2017-12-24T00:24:12.315Z,20.35
2017-12-24T00:26:39.869Z,20.34
2017-12-24T00:29:07.432Z,20.31
2017-12-24T00:31:35.021Z,20.29
2017-12-24T00:34:02.504Z,20.28
2017-12-24T00:36:29.985Z,20.30
2017-12-24T00:38:57.503Z,20.32
2017-12-24T00:41:24.981Z,20.35
2017-12-24T00:43:52.465Z,20.36
2017-12-24T00:46:20.056Z,20.35
2017-12-24T00:48:47.605Z,20.33
2017-12-24T00:51:15.090Z,20.30
2017-12-24T00:53:42.666Z,20.30
2017-12-24T00:56:10.219Z,20.30
2017-12-24T00:58:37.768Z,20.32
2017-12-24T01:01:05.277Z,20.34
2017-12-24T01:03:32.762Z,20.35
2017-12-24T01:06:00.245Z,20.33
2017-12-24T01:08:27.831Z,20.31
2017-12-24T01:10:55.367Z,20.28
2017-12-24T01:13:22.858Z,20.26
2017-12-24T01:15:50.374Z,20.26
2017-12-24T01:18:17.853Z,20.28
2017-12-24T01:20:45.408Z,20.31
2017-12-24T01:23:12.921Z,20.31
2017-12-24T01:25:40.467Z,20.30
2017-12-24T01:28:08.012Z,20.29
2017-12-24T01:30:35.603Z,20.27
2017-12-24T01:33:03.151Z,20.28
2017-12-24T01:35:30.630Z,20.27
2017-12-24T01:37:58.149Z,20.28
2017-12-24T01:40:25.627Z,20.29
2017-12-24T01:42:53.122Z,20.33
2017-12-24T01:45:20.642Z,20.34
2017-12-24T01:47:52.053Z,20.34
2017-12-24T01:50:19.612Z,20.31
2017-12-24T01:52:47.198Z,20.28
2017-12-24T01:55:14.678Z,20.26
2017-12-24T01:57:42.167Z,20.26
2017-12-24T02:00:09.694Z,20.27
2017-12-24T02:02:37.287Z,20.30
2017-12-24T02:05:04.781Z,20.31
2017-12-24T02:07:32.364Z,20.29
2017-12-24T02:09:59.923Z,20.28
2017-12-24T02:12:27.483Z,20.26
2017-12-24T02:14:55.003Z,20.25
2017-12-24T02:17:22.565Z,20.25
2017-12-24T02:19:50.111Z,20.28
2017-12-24T02:22:17.626Z,20.29
2017-12-24T02:24:45.176Z,20.27
2017-12-24T02:27:12.734Z,20.25
2017-12-24T02:29:40.259Z,20.24
2017-12-24T02:32:07.740Z,20.22
2017-12-24T02:34:35.297Z,20.24
2017-12-24T02:37:02.814Z,20.27
2017-12-24T02:39:30.304Z,20.28
2017-12-24T02:41:57.849Z,20.27
2017-12-24T02:44:25.363Z,20.24
2017-12-24T02:46:52.926Z,20.22
2017-12-24T02:49:20.410Z,20.21
2017-12-24T02:51:48.016Z,20.21
2017-12-24T02:54:15.502Z,20.22
2017-12-24T02:56:43.052Z,20.23
2017-12-24T02:59:10.633Z,20.28
2017-12-24T03:01:38.182Z,20.28
2017-12-24T03:04:05.733Z,20.28
2017-12-24T03:06:33.315Z,20.25
2017-12-24T03:09:00.858Z,20.23
2017-12-24T03:11:28.412Z,20.21
2017-12-24T03:13:55.923Z,20.23
2017-12-24T03:16:23.402Z,20.24
2017-12-24T03:18:50.952Z,20.26
2017-12-24T03:21:18.531Z,20.28
2017-12-24T03:23:46.011Z,20.27
2017-12-24T03:26:13.560Z,20.26
2017-12-24T03:28:41.071Z,20.24
2017-12-24T03:31:08.550Z,20.22
2017-12-24T03:33:36.102Z,20.21
2017-12-24T03:36:03.681Z,20.21
2017-12-24T03:38:31.163Z,20.22
2017-12-24T03:40:58.657Z,20.25
2017-12-24T03:43:26.243Z,20.25
2017-12-24T03:45:53.801Z,20.25
2017-12-24T03:48:21.364Z,20.23
2017-12-24T03:50:48.944Z,20.20
2017-12-24T03:53:16.493Z,20.20
2017-12-24T03:55:44.043Z,20.20
2017-12-24T03:58:11.631Z,20.21
2017-12-24T04:00:39.117Z,20.23
2017-12-24T04:03:06.679Z,20.25
2017-12-24T04:05:34.259Z,20.25
2017-12-24T04:08:01.813Z,20.23
2017-12-24T04:10:29.380Z,20.20
2017-12-24T04:12:56.964Z,20.18
2017-12-24T04:15:24.527Z,20.17
2017-12-24T04:17:52.095Z,20.17
2017-12-24T04:20:19.863Z,20.18
2017-12-24T04:22:47.350Z,20.21
2017-12-24T04:25:14.902Z,20.22
2017-12-24T04:27:42.422Z,20.22
2017-12-24T04:30:09.976Z,20.21
2017-12-24T04:32:37.532Z,20.18
2017-12-24T04:35:05.117Z,20.17
2017-12-24T04:37:32.600Z,20.15
2017-12-24T04:40:00.096Z,20.14
2017-12-24T04:42:27.685Z,20.15
2017-12-24T04:44:55.232Z,20.21
2017-12-24T04:47:22.803Z,20.24
2017-12-24T04:49:50.352Z,20.24
2017-12-24T04:52:17.835Z,20.22
2017-12-24T04:54:45.346Z,20.20
2017-12-24T04:57:12.897Z,20.20
2017-12-24T04:59:40.455Z,20.18
2017-12-24T05:02:07.988Z,20.18
2017-12-24T05:04:35.462Z,20.20
2017-12-24T05:07:03.012Z,20.22
2017-12-24T05:09:30.587Z,20.22
2017-12-24T05:11:58.156Z,20.21
2017-12-24T05:14:25.634Z,20.19
2017-12-24T05:16:53.226Z,20.17
2017-12-24T05:19:20.771Z,20.16
2017-12-24T05:21:48.254Z,20.17
2017-12-24T05:24:15.767Z,20.19
2017-12-24T05:26:43.246Z,20.20
2017-12-24T05:29:10.787Z,20.20
2017-12-24T05:31:38.380Z,20.18
2017-12-24T05:34:05.939Z,20.14
2017-12-24T05:36:33.418Z,20.11
2017-12-24T05:39:00.935Z,20.13
2017-12-24T05:41:28.422Z,20.13
2017-12-24T05:43:55.976Z,20.17
2017-12-24T05:46:23.492Z,20.19
2017-12-24T05:48:51.050Z,20.18
2017-12-24T05:51:18.533Z,20.18
2017-12-24T05:53:46.041Z,20.16
2017-12-24T05:56:13.523Z,20.14
2017-12-24T05:58:41.076Z,20.13
2017-12-24T06:01:08.599Z,20.15
2017-12-24T06:03:36.152Z,20.16
2017-12-24T06:06:03.634Z,20.21
2017-12-24T06:08:31.336Z,20.27
2017-12-24T06:10:58.821Z,20.33
2017-12-24T06:13:26.364Z,20.35
2017-12-24T06:15:53.869Z,20.34
2017-12-24T06:18:21.430Z,20.32
2017-12-24T06:20:48.918Z,20.31
2017-12-24T06:23:16.491Z,20.30
2017-12-24T06:25:43.973Z,20.31
2017-12-24T06:28:11.450Z,20.32
2017-12-24T06:30:39.037Z,20.35
2017-12-24T06:33:06.575Z,20.35
2017-12-24T06:35:34.137Z,20.23
2017-12-24T06:38:01.722Z,20.17
2017-12-24T06:40:29.207Z,20.14
2017-12-24T06:42:56.767Z,20.11
2017-12-24T06:45:24.344Z,20.09
2017-12-24T06:47:51.900Z,20.06
2017-12-24T06:50:19.381Z,20.10
2017-12-24T06:52:46.911Z,20.18
2017-12-24T06:55:14.484Z,20.23
2017-12-24T06:57:41.979Z,20.29
2017-12-24T07:00:09.507Z,20.33
2017-12-24T07:02:37.023Z,20.32
2017-12-24T07:05:04.511Z,20.30
2017-12-24T07:07:32.042Z,20.28
2017-12-24T07:09:59.591Z,20.27
2017-12-24T07:12:27.098Z,20.29
2017-12-24T07:14:54.625Z,20.32
2017-12-24T07:17:22.175Z,20.35
2017-12-24T07:19:49.654Z,20.37
2017-12-24T07:22:17.240Z,20.36
2017-12-24T07:24:44.719Z,20.44
2017-12-24T07:27:12.267Z,20.52
2017-12-24T07:29:39.790Z,20.62
2017-12-24T07:32:07.341Z,20.71
2017-12-24T07:34:34.821Z,20.75
2017-12-24T07:37:02.404Z,20.77
2017-12-24T07:39:29.952Z,20.75
2017-12-24T07:41:57.504Z,20.70
2017-12-24T07:44:25.080Z,20.66
2017-12-24T07:46:52.558Z,20.63
2017-12-24T07:49:20.100Z,20.60
2017-12-24T07:51:47.613Z,20.56
2017-12-24T07:54:15.163Z,20.53
2017-12-24T07:56:42.720Z,20.51
2017-12-24T07:59:10.300Z,20.52
2017-12-24T08:01:37.793Z,20.58
2017-12-24T08:04:05.342Z,20.63
2017-12-24T08:06:32.921Z,20.63
2017-12-24T08:09:00.472Z,20.61
2017-12-24T08:11:27.960Z,20.62
2017-12-24T08:13:55.541Z,20.59
2017-12-24T08:16:23.088Z,20.57
2017-12-24T08:18:50.643Z,20.55
2017-12-24T08:21:18.153Z,20.46
2017-12-24T08:23:45.700Z,20.49
2017-12-24T08:26:13.243Z,20.53
2017-12-24T08:28:40.753Z,20.63
2017-12-24T08:31:08.313Z,20.68
2017-12-24T08:33:35.876Z,20.69
2017-12-24T08:36:03.408Z,20.68
2017-12-24T08:38:30.882Z,20.67
2017-12-24T08:40:58.431Z,20.73
2017-12-24T08:43:26.008Z,20.76
2017-12-24T08:45:53.587Z,20.76
2017-12-24T08:48:21.071Z,20.75
2017-12-24T08:50:48.664Z,20.72
2017-12-24T08:53:16.141Z,20.68
2017-12-24T08:55:43.688Z,20.66
2017-12-24T08:58:11.229Z,20.61
2017-12-24T09:00:38.775Z,20.59
2017-12-24T09:03:06.328Z,20.57
2017-12-24T09:05:33.911Z,20.53
2017-12-24T09:08:01.394Z,20.50
2017-12-24T09:10:28.948Z,20.51
2017-12-24T09:12:56.543Z,20.59
2017-12-24T09:15:24.023Z,20.61
2017-12-24T09:17:51.604Z,20.60
2017-12-24T09:20:19.124Z,20.61
2017-12-24T09:22:46.686Z,20.61
2017-12-24T09:25:14.186Z,20.57
2017-12-24T09:27:41.719Z,20.54
2017-12-24T09:30:09.280Z,20.48
2017-12-24T09:32:36.831Z,20.42
2017-12-24T09:35:04.366Z,20.42
2017-12-24T09:37:31.928Z,20.42
2017-12-24T09:39:59.413Z,20.44
2017-12-24T09:42:26.999Z,20.52
2017-12-24T09:44:54.551Z,20.56
2017-12-24T09:47:22.120Z,20.60
2017-12-24T09:49:49.608Z,20.64
2017-12-24T09:52:17.109Z,20.66
2017-12-24T09:54:44.626Z,20.68
2017-12-24T09:57:12.113Z,20.69
2017-12-24T09:59:39.655Z,20.70
2017-12-24T10:02:07.169Z,20.70
2017-12-24T10:04:34.723Z,20.70
2017-12-24T10:07:02.303Z,20.70
2017-12-24T10:09:29.826Z,20.69
2017-12-24T10:11:57.379Z,20.68
2017-12-24T10:14:24.923Z,20.67
2017-12-24T10:16:52.519Z,20.65
2017-12-24T10:19:20.006Z,20.68
2017-12-24T10:21:47.560Z,20.66
2017-12-24T10:24:15.144Z,20.70
2017-12-24T10:26:42.687Z,20.81
2017-12-24T10:29:10.240Z,20.86
2017-12-24T10:31:37.764Z,20.87
2017-12-24T10:34:05.246Z,20.90
2017-12-24T10:36:32.730Z,20.89
2017-12-24T10:39:00.242Z,20.86
2017-12-24T10:41:27.787Z,20.85
2017-12-24T10:43:55.327Z,20.83
2017-12-24T10:46:22.910Z,20.82
2017-12-24T10:48:50.390Z,20.86
2017-12-24T10:51:17.929Z,20.88
2017-12-24T10:53:45.521Z,20.91
2017-12-24T10:56:13.071Z,20.88
2017-12-24T10:58:40.567Z,20.84
2017-12-24T11:01:08.079Z,20.84
2017-12-24T11:03:35.558Z,20.83
2017-12-24T11:06:03.033Z,20.84
2017-12-24T11:08:30.586Z,20.85
2017-12-24T11:10:58.135Z,20.92
2017-12-24T11:13:25.679Z,20.91
2017-12-24T11:15:53.253Z,20.92
2017-12-24T11:18:20.803Z,20.92
2017-12-24T11:20:48.347Z,20.94
2017-12-24T11:23:15.861Z,20.94
2017-12-24T11:25:43.411Z,20.95
2017-12-24T11:28:10.978Z,20.98
2017-12-24T11:30:38.555Z,21.03
2017-12-24T11:33:06.018Z,21.09
2017-12-24T11:35:33.561Z,21.18
2017-12-24T11:38:01.148Z,21.27
2017-12-24T11:40:28.697Z,21.33
2017-12-24T11:42:56.196Z,21.36
2017-12-24T11:45:23.702Z,21.42
2017-12-24T11:47:51.256Z,21.47
2017-12-24T11:50:18.812Z,21.55
2017-12-24T11:52:46.407Z,21.66
2017-12-24T11:55:13.900Z,21.73
2017-12-24T11:57:41.448Z,21.78
2017-12-24T12:00:08.995Z,21.85
2017-12-24T12:02:36.474Z,21.79
2017-12-24T12:05:03.961Z,21.68
2017-12-24T12:07:31.471Z,21.61
2017-12-24T12:09:58.942Z,21.52
2017-12-24T12:12:26.487Z,21.45
2017-12-24T12:14:54.088Z,21.43
2017-12-24T12:17:21.602Z,21.48
2017-12-24T12:19:49.155Z,21.46
2017-12-24T12:22:16.665Z,21.40
2017-12-24T12:24:44.147Z,21.39
2017-12-24T12:27:11.626Z,21.33
2017-12-24T12:29:39.139Z,21.27
2017-12-24T12:32:06.617Z,21.27
2017-12-24T12:34:34.113Z,21.22
2017-12-24T12:37:01.693Z,21.21
2017-12-24T12:39:29.252Z,21.18
2017-12-24T12:41:56.812Z,21.18
2017-12-24T12:44:24.338Z,21.22
2017-12-24T12:46:51.826Z,21.21
2017-12-24T12:49:19.313Z,21.17
2017-12-24T12:51:46.842Z,21.10
2017-12-24T12:54:14.326Z,21.10
2017-12-24T12:56:41.815Z,21.16
2017-12-24T12:59:09.333Z,21.25
2017-12-24T13:01:36.835Z,21.34
2017-12-24T13:04:04.326Z,21.40
2017-12-24T13:06:31.842Z,21.41
2017-12-24T13:08:59.326Z,21.40
2017-12-24T13:11:26.892Z,21.40
2017-12-24T13:13:54.432Z,21.40
2017-12-24T13:16:22.009Z,21.41
2017-12-24T13:18:49.579Z,21.42
2017-12-24T13:21:17.110Z,21.46
2017-12-24T13:23:44.621Z,21.49
2017-12-24T13:26:12.110Z,21.51
2017-12-24T13:28:39.694Z,21.51
2017-12-24T13:31:07.256Z,21.49
2017-12-24T13:33:34.859Z,21.49
2017-12-24T13:36:02.378Z,21.50
2017-12-24T13:38:29.859Z,21.52
2017-12-24T13:40:57.420Z,21.54
2017-12-24T13:43:25.003Z,21.61
2017-12-24T13:45:52.495Z,21.57
2017-12-24T13:48:19.974Z,21.54
2017-12-24T13:50:47.495Z,21.52
2017-12-24T13:53:15.053Z,21.49
2017-12-24T13:55:42.610Z,21.50
2017-12-24T13:58:10.139Z,21.50
2017-12-24T14:00:37.683Z,21.52
2017-12-24T14:03:05.231Z,21.49
2017-12-24T14:05:32.811Z,21.43
2017-12-24T14:08:00.363Z,21.38
2017-12-24T14:10:27.916Z,21.32
2017-12-24T14:12:55.429Z,21.31
2017-12-24T14:15:22.975Z,21.34
2017-12-24T14:17:50.539Z,21.34
2017-12-24T14:20:18.065Z,21.32
2017-12-24T14:22:45.546Z,21.29
2017-12-24T14:25:13.132Z,21.31
2017-12-24T14:27:40.724Z,21.30
2017-12-24T14:30:08.367Z,21.26
2017-12-24T14:32:35.949Z,21.23
2017-12-24T14:35:03.470Z,21.24
2017-12-24T14:37:30.957Z,21.21
2017-12-24T14:39:58.503Z,21.20
2017-12-24T14:42:26.099Z,21.21
2017-12-24T14:44:53.593Z,21.23
2017-12-24T14:47:21.150Z,21.20
2017-12-24T14:49:48.645Z,21.18
2017-12-24T14:52:16.200Z,21.16
2017-12-24T14:54:43.757Z,21.14
2017-12-24T14:57:11.357Z,21.12
2017-12-24T14:59:38.832Z,21.10
2017-12-24T15:02:06.348Z,21.13
2017-12-24T15:04:33.903Z,21.17
2017-12-24T15:07:01.448Z,21.17
2017-12-24T15:09:28.964Z,21.21
2017-12-24T15:11:56.519Z,21.28
2017-12-24T15:14:24.072Z,21.16
2017-12-24T15:16:51.598Z,21.02
2017-12-24T15:19:19.240Z,20.92
2017-12-24T15:21:46.748Z,20.94
2017-12-24T15:24:14.332Z,21.04
2017-12-24T15:26:41.879Z,21.12
2017-12-24T15:29:09.439Z,21.17
2017-12-24T15:31:36.954Z,21.17
2017-12-24T15:34:04.452Z,21.17
2017-12-24T15:36:31.935Z,21.18
2017-12-24T15:38:59.450Z,21.19
2017-12-24T15:41:26.938Z,21.20
2017-12-24T15:43:54.475Z,21.29
2017-12-24T15:46:21.994Z,21.33
2017-12-24T15:48:49.482Z,21.34
2017-12-24T15:51:16.984Z,21.31
2017-12-24T15:53:44.495Z,21.30
2017-12-24T15:56:12.061Z,21.33
2017-12-24T15:58:39.547Z,21.35
2017-12-24T16:01:07.070Z,21.38
2017-12-24T16:03:34.551Z,21.40
2017-12-24T16:06:02.100Z,21.39
2017-12-24T16:08:29.683Z,21.39
2017-12-24T16:10:57.235Z,21.39
2017-12-24T16:13:24.789Z,21.38
2017-12-24T16:15:52.399Z,21.40
2017-12-24T16:18:19.947Z,21.45
2017-12-24T16:20:47.434Z,21.50
2017-12-24T16:23:14.944Z,21.47
2017-12-24T16:25:42.422Z,21.44
2017-12-24T16:28:09.980Z,21.42
2017-12-24T16:30:37.633Z,21.40
2017-12-24T16:33:05.187Z,21.40
2017-12-24T16:35:32.752Z,21.43
2017-12-24T16:38:00.336Z,21.49
2017-12-24T16:40:27.879Z,21.49
2017-12-24T16:42:55.376Z,21.47
2017-12-24T16:45:22.988Z,21.43
2017-12-24T16:47:50.536Z,21.44
2017-12-24T16:50:18.084Z,21.46
2017-12-24T16:52:45.601Z,21.54
2017-12-24T16:55:13.164Z,21.65
2017-12-24T16:57:40.724Z,21.68
2017-12-24T17:00:08.326Z,21.72
2017-12-24T17:02:35.818Z,21.78
2017-12-24T17:05:03.305Z,21.81
2017-12-24T17:07:30.903Z,21.83
2017-12-24T17:09:58.386Z,21.83
2017-12-24T17:12:25.870Z,21.84
2017-12-24T17:14:53.455Z,21.85
2017-12-24T17:17:21.009Z,21.81
2017-12-24T17:19:48.563Z,21.75
2017-12-24T17:22:16.147Z,21.73
2017-12-24T17:24:43.703Z,21.76
2017-12-24T17:27:11.297Z,21.73
2017-12-24T17:29:38.884Z,21.73
2017-12-24T17:32:06.434Z,21.77
2017-12-24T17:34:33.917Z,21.79
2017-12-24T17:37:01.430Z,21.78
2017-12-24T17:39:28.919Z,21.77
2017-12-24T17:41:56.473Z,21.74
2017-12-24T17:44:24.006Z,21.73
2017-12-24T17:46:51.561Z,21.73
2017-12-24T17:49:19.108Z,21.72
2017-12-24T17:51:46.695Z,21.74
2017-12-24T17:54:14.250Z,21.77
2017-12-24T17:56:41.740Z,21.79
2017-12-24T17:59:09.323Z,21.81
2017-12-24T18:01:36.809Z,21.82
2017-12-24T18:04:04.294Z,21.75
2017-12-24T18:06:31.876Z,21.70
2017-12-24T18:08:59.433Z,21.69
2017-12-24T18:11:26.996Z,21.69
2017-12-24T18:13:54.526Z,21.66
2017-12-24T18:16:22.079Z,21.62
2017-12-24T18:18:49.573Z,21.63
2017-12-24T18:21:17.128Z,21.63
2017-12-24T18:23:44.635Z,21.62
2017-12-24T18:26:12.155Z,21.68
2017-12-24T18:28:40.535Z,21.69
2017-12-24T18:31:08.092Z,21.68
2017-12-24T18:33:35.579Z,21.68
2017-12-24T18:36:03.110Z,21.67
2017-12-24T18:38:30.655Z,21.66
2017-12-24T18:40:59.457Z,21.67
2017-12-24T18:43:26.982Z,21.67
2017-12-24T18:45:54.520Z,21.67
2017-12-24T18:48:22.021Z,21.64
2017-12-24T18:50:49.559Z,21.67
2017-12-24T18:53:17.049Z,21.73
2017-12-24T18:55:44.612Z,21.80
2017-12-24T18:58:12.131Z,21.84
2017-12-24T19:00:39.692Z,21.91
2017-12-24T19:03:07.254Z,21.98
2017-12-24T19:05:34.782Z,22.04
2017-12-24T19:08:02.331Z,22.05
2017-12-24T19:10:29.884Z,22.07
2017-12-24T19:12:57.418Z,22.06
2017-12-24T19:15:24.910Z,22.03
2017-12-24T19:17:52.474Z,22.01
2017-12-24T19:20:19.993Z,22.00
2017-12-24T19:22:48.402Z,21.99
2017-12-24T19:25:15.886Z,21.95
2017-12-24T19:27:43.405Z,21.90
2017-12-24T19:30:10.900Z,21.85
2017-12-24T19:32:38.392Z,21.84
2017-12-24T19:35:05.975Z,21.82
2017-12-24T19:37:33.463Z,21.83
2017-12-24T19:40:01.041Z,21.78
2017-12-24T19:42:28.619Z,21.78
2017-12-24T19:44:56.184Z,21.72
2017-12-24T19:47:23.748Z,21.61
2017-12-24T19:49:51.445Z,21.46
2017-12-24T19:52:19.004Z,21.41
2017-12-24T19:54:46.498Z,21.41
2017-12-24T19:57:14.079Z,21.42
2017-12-24T19:59:41.632Z,21.41
2017-12-24T20:02:09.188Z,21.41
2017-12-24T20:04:36.794Z,21.41
2017-12-24T20:07:04.286Z,21.43
2017-12-24T20:09:31.762Z,21.47
2017-12-24T20:11:59.284Z,21.50
2017-12-24T20:14:26.773Z,21.51
2017-12-24T20:16:54.267Z,21.48
2017-12-24T20:19:21.852Z,21.46
2017-12-24T20:21:49.345Z,21.44
2017-12-24T20:24:16.904Z,21.44
2017-12-24T20:26:44.431Z,21.43
2017-12-24T20:29:11.979Z,21.43
2017-12-24T20:31:39.457Z,21.46
2017-12-24T20:34:07.039Z,21.48
2017-12-24T20:36:34.587Z,21.50
2017-12-24T20:39:02.143Z,21.50
2017-12-24T20:41:29.657Z,21.50
2017-12-24T20:43:57.143Z,21.49
2017-12-24T20:46:24.621Z,21.50
2017-12-24T20:48:52.138Z,21.50
2017-12-24T20:51:19.626Z,21.51
2017-12-24T20:53:47.184Z,21.52
2017-12-24T20:56:14.698Z,21.50
2017-12-24T20:58:42.177Z,21.47
2017-12-24T21:01:09.658Z,21.46
2017-12-24T21:03:37.243Z,21.46
2017-12-24T21:06:04.721Z,21.49
2017-12-24T21:08:32.267Z,21.51
2017-12-24T21:10:59.778Z,21.54
2017-12-24T21:13:27.317Z,21.55
2017-12-24T21:15:54.803Z,21.56
2017-12-24T21:18:22.318Z,21.57
2017-12-24T21:20:49.846Z,21.58
2017-12-24T21:23:17.310Z,21.58
2017-12-24T21:25:44.885Z,21.61
2017-12-24T21:28:12.379Z,21.61
2017-12-24T21:30:39.875Z,21.61
2017-12-24T21:33:07.465Z,21.61
2017-12-24T21:35:34.966Z,21.61
2017-12-24T21:38:02.511Z,21.62
2017-12-24T21:40:30.095Z,21.63
2017-12-24T21:42:57.649Z,21.65
2017-12-24T21:45:25.204Z,21.64
2017-12-24T21:47:52.714Z,21.64
2017-12-24T21:50:20.263Z,21.62
2017-12-24T21:52:47.754Z,21.62
2017-12-24T21:55:15.277Z,21.64
2017-12-24T21:57:42.766Z,21.64
2017-12-24T22:00:10.320Z,21.62
2017-12-24T22:02:37.822Z,21.58
2017-12-24T22:05:05.302Z,21.57
2017-12-24T22:07:32.842Z,21.55
2017-12-24T22:10:00.419Z,21.54
2017-12-24T22:12:27.972Z,21.54
2017-12-24T22:14:55.453Z,21.54
2017-12-24T22:17:23.027Z,21.52
2017-12-24T22:19:50.569Z,21.50
2017-12-24T22:22:18.122Z,21.49
2017-12-24T22:24:45.704Z,21.48
2017-12-24T22:27:13.202Z,21.49
2017-12-24T22:29:40.779Z,21.49
2017-12-24T22:32:08.351Z,21.50
2017-12-24T22:34:35.833Z,21.49
2017-12-24T22:37:03.386Z,21.47
2017-12-24T22:39:30.976Z,21.46
2017-12-24T22:41:58.450Z,21.47
2017-12-24T22:44:25.929Z,21.47
2017-12-24T22:46:53.507Z,21.49
2017-12-24T22:49:20.986Z,21.50
2017-12-24T22:51:48.539Z,21.47
2017-12-24T22:54:16.050Z,21.44
2017-12-24T22:56:43.534Z,21.43
2017-12-24T22:59:11.083Z,21.42
2017-12-24T23:01:38.663Z,21.43
2017-12-24T23:04:06.216Z,21.43
2017-12-24T23:06:33.685Z,21.42
2017-12-24T23:09:01.255Z,21.40
2017-12-24T23:11:28.807Z,21.39
2017-12-24T23:13:56.281Z,21.39
2017-12-24T23:16:23.785Z,21.40
2017-12-24T23:18:51.336Z,21.40
2017-12-24T23:21:18.886Z,21.39
2017-12-24T23:23:46.459Z,21.38
2017-12-24T23:26:13.937Z,21.36
2017-12-24T23:28:41.418Z,21.36
2017-12-24T23:31:08.995Z,21.34
2017-12-24T23:33:36.540Z,21.35
2017-12-24T23:36:04.100Z,21.35
2017-12-24T23:38:31.609Z,21.34
2017-12-24T23:40:59.156Z,21.37
2017-12-24T23:43:26.637Z,21.38
2017-12-24T23:45:54.150Z,21.35
2017-12-24T23:48:21.719Z,21.33
2017-12-24T23:50:49.189Z,21.29
2017-12-24T23:53:16.763Z,21.30
2017-12-24T23:55:44.238Z,21.30
2017-12-24T23:58:11.779Z,21.30
